sensor_id;sensor_type;location;lat;lon;timestamp;P1;durP1;ratioP1;P2;durP2;ratioP2
6117;SDS011;3089;48.202;11.510;2022-07-23T00:01:16;9.43;;;6.00;;
6117;SDS011;3089;48.202;11.510;2022-07-23T00:03:53;9.33;;;5.00;;
6117;SDS011;3089;48.202;11.510;2022-07-23T00:06:21;10.73;;;5.37;;
6117;SDS011;3089;48.202;11.510;2022-07-23T00:08:49;6.43;;;4.90;;
6117;SDS011;3089;48.202;11.510;2022-07-23T00:11:18;7.57;;;5.20;;
6117;SDS011;3089;48.202;11.510;2022-07-23T00:13:49;10.00;;;5.27;;
6117;SDS011;3089;48.202;11.510;2022-07-23T00:16:17;8.77;;;5.43;;
6117;SDS011;3089;48.202;11.510;2022-07-23T00:18:45;7.93;;;5.50;;
6117;SDS011;3089;48.202;11.510;2022-07-23T00:21:12;8.50;;;5.87;;
6117;SDS011;3089;48.202;11.510;2022-07-23T00:23:40;11.57;;;5.60;;
6117;SDS011;3089;48.202;11.510;2022-07-23T00:26:08;11.97;;;5.83;;
6117;SDS011;3089;48.202;11.510;2022-07-23T00:28:36;8.43;;;5.47;;
6117;SDS011;3089;48.202;11.510;2022-07-23T00:31:05;9.63;;;5.77;;
6117;SDS011;3089;48.202;11.510;2022-07-23T00:33:33;8.20;;;4.93;;
6117;SDS011;3089;48.202;11.510;2022-07-23T00:36:01;8.07;;;5.30;;
6117;SDS011;3089;48.202;11.510;2022-07-23T00:38:29;8.17;;;4.90;;
6117;SDS011;3089;48.202;11.510;2022-07-23T00:40:57;8.10;;;5.20;;
6117;SDS011;3089;48.202;11.510;2022-07-23T00:43:25;9.77;;;5.37;;
6117;SDS011;3089;48.202;11.510;2022-07-23T00:45:53;8.67;;;5.10;;
6117;SDS011;3089;48.202;11.510;2022-07-23T00:48:22;7.27;;;5.00;;
6117;SDS011;3089;48.202;11.510;2022-07-23T00:50:50;8.43;;;5.50;;
6117;SDS011;3089;48.202;11.510;2022-07-23T00:53:18;7.23;;;5.40;;
6117;SDS011;3089;48.202;11.510;2022-07-23T00:55:47;10.17;;;4.90;;
6117;SDS011;3089;48.202;11.510;2022-07-23T00:58:15;7.97;;;5.50;;
6117;SDS011;3089;48.202;11.510;2022-07-23T01:00:44;8.73;;;4.97;;
6117;SDS011;3089;48.202;11.510;2022-07-23T01:03:12;9.33;;;5.30;;
6117;SDS011;3089;48.202;11.510;2022-07-23T01:05:42;9.40;;;5.40;;
6117;SDS011;3089;48.202;11.510;2022-07-23T01:08:10;6.93;;;4.67;;
6117;SDS011;3089;48.202;11.510;2022-07-23T01:10:39;8.87;;;5.57;;
6117;SDS011;3089;48.202;11.510;2022-07-23T01:13:08;8.00;;;5.27;;
6117;SDS011;3089;48.202;11.510;2022-07-23T01:15:37;7.97;;;5.67;;
6117;SDS011;3089;48.202;11.510;2022-07-23T01:18:06;8.90;;;6.10;;
6117;SDS011;3089;48.202;11.510;2022-07-23T01:20:34;8.93;;;6.33;;
6117;SDS011;3089;48.202;11.510;2022-07-23T01:23:04;9.50;;;6.00;;
6117;SDS011;3089;48.202;11.510;2022-07-23T01:25:32;9.50;;;5.67;;
6117;SDS011;3089;48.202;11.510;2022-07-23T01:28:00;9.00;;;5.03;;
6117;SDS011;3089;48.202;11.510;2022-07-23T01:30:28;9.43;;;4.83;;
6117;SDS011;3089;48.202;11.510;2022-07-23T01:32:56;13.53;;;5.77;;
6117;SDS011;3089;48.202;11.510;2022-07-23T01:35:24;8.97;;;4.20;;
6117;SDS011;3089;48.202;11.510;2022-07-23T01:37:51;7.40;;;4.50;;
6117;SDS011;3089;48.202;11.510;2022-07-23T01:40:21;9.80;;;5.17;;
6117;SDS011;3089;48.202;11.510;2022-07-23T01:42:49;6.90;;;4.60;;
6117;SDS011;3089;48.202;11.510;2022-07-23T01:45:18;22.50;;;5.97;;
6117;SDS011;3089;48.202;11.510;2022-07-23T01:47:46;18.80;;;4.97;;
6117;SDS011;3089;48.202;11.510;2022-07-23T01:50:15;14.30;;;5.17;;
6117;SDS011;3089;48.202;11.510;2022-07-23T01:52:42;7.07;;;4.33;;
6117;SDS011;3089;48.202;11.510;2022-07-23T01:55:10;10.27;;;4.83;;
6117;SDS011;3089;48.202;11.510;2022-07-23T01:57:45;7.87;;;4.50;;
6117;SDS011;3089;48.202;11.510;2022-07-23T02:00:14;10.87;;;5.40;;
6117;SDS011;3089;48.202;11.510;2022-07-23T02:02:42;10.30;;;4.57;;
6117;SDS011;3089;48.202;11.510;2022-07-23T02:05:10;7.90;;;4.70;;
6117;SDS011;3089;48.202;11.510;2022-07-23T02:07:37;8.30;;;5.07;;
6117;SDS011;3089;48.202;11.510;2022-07-23T02:10:06;9.37;;;5.37;;
6117;SDS011;3089;48.202;11.510;2022-07-23T02:12:34;9.40;;;5.73;;
6117;SDS011;3089;48.202;11.510;2022-07-23T02:15:04;7.30;;;4.40;;
6117;SDS011;3089;48.202;11.510;2022-07-23T02:17:35;9.63;;;4.60;;
6117;SDS011;3089;48.202;11.510;2022-07-23T02:20:04;6.50;;;4.27;;
6117;SDS011;3089;48.202;11.510;2022-07-23T02:22:32;11.50;;;4.70;;
6117;SDS011;3089;48.202;11.510;2022-07-23T02:25:00;9.00;;;4.73;;
6117;SDS011;3089;48.202;11.510;2022-07-23T02:27:28;6.87;;;4.30;;
6117;SDS011;3089;48.202;11.510;2022-07-23T02:29:56;17.23;;;4.63;;
6117;SDS011;3089;48.202;11.510;2022-07-23T02:32:25;9.90;;;4.20;;
6117;SDS011;3089;48.202;11.510;2022-07-23T02:34:54;11.57;;;4.80;;
6117;SDS011;3089;48.202;11.510;2022-07-23T02:37:22;9.00;;;4.90;;
6117;SDS011;3089;48.202;11.510;2022-07-23T02:39:50;7.20;;;3.90;;
6117;SDS011;3089;48.202;11.510;2022-07-23T02:42:18;9.37;;;4.03;;
6117;SDS011;3089;48.202;11.510;2022-07-23T02:44:46;5.80;;;3.57;;
6117;SDS011;3089;48.202;11.510;2022-07-23T02:47:13;7.07;;;4.03;;
6117;SDS011;3089;48.202;11.510;2022-07-23T02:49:43;9.00;;;4.27;;
6117;SDS011;3089;48.202;11.510;2022-07-23T02:52:10;5.87;;;3.67;;
6117;SDS011;3089;48.202;11.510;2022-07-23T02:54:38;10.00;;;4.07;;
6117;SDS011;3089;48.202;11.510;2022-07-23T02:57:06;6.33;;;2.90;;
6117;SDS011;3089;48.202;11.510;2022-07-23T02:59:34;6.70;;;3.40;;
6117;SDS011;3089;48.202;11.510;2022-07-23T03:02:02;8.63;;;3.63;;
6117;SDS011;3089;48.202;11.510;2022-07-23T03:04:30;5.53;;;3.50;;
6117;SDS011;3089;48.202;11.510;2022-07-23T03:06:59;7.20;;;4.00;;
6117;SDS011;3089;48.202;11.510;2022-07-23T03:09:27;8.00;;;5.10;;
6117;SDS011;3089;48.202;11.510;2022-07-23T03:11:55;6.87;;;4.10;;
6117;SDS011;3089;48.202;11.510;2022-07-23T03:14:22;7.50;;;2.97;;
6117;SDS011;3089;48.202;11.510;2022-07-23T03:16:50;7.40;;;3.70;;
6117;SDS011;3089;48.202;11.510;2022-07-23T03:19:19;14.63;;;3.47;;
6117;SDS011;3089;48.202;11.510;2022-07-23T03:21:47;7.00;;;2.60;;
6117;SDS011;3089;48.202;11.510;2022-07-23T03:24:16;6.40;;;3.03;;
6117;SDS011;3089;48.202;11.510;2022-07-23T03:26:44;5.87;;;2.80;;
6117;SDS011;3089;48.202;11.510;2022-07-23T03:29:12;5.00;;;2.70;;
6117;SDS011;3089;48.202;11.510;2022-07-23T03:31:40;5.73;;;2.43;;
6117;SDS011;3089;48.202;11.510;2022-07-23T03:34:08;3.97;;;2.57;;
6117;SDS011;3089;48.202;11.510;2022-07-23T03:36:36;5.20;;;3.10;;
6117;SDS011;3089;48.202;11.510;2022-07-23T03:39:04;5.10;;;2.67;;
6117;SDS011;3089;48.202;11.510;2022-07-23T03:41:39;4.80;;;2.70;;
6117;SDS011;3089;48.202;11.510;2022-07-23T03:44:07;7.17;;;3.07;;
6117;SDS011;3089;48.202;11.510;2022-07-23T03:46:35;4.60;;;2.70;;
6117;SDS011;3089;48.202;11.510;2022-07-23T03:49:02;4.80;;;2.53;;
6117;SDS011;3089;48.202;11.510;2022-07-23T03:51:31;6.53;;;3.80;;
6117;SDS011;3089;48.202;11.510;2022-07-23T03:53:59;4.50;;;2.60;;
6117;SDS011;3089;48.202;11.510;2022-07-23T03:56:27;6.10;;;3.27;;
6117;SDS011;3089;48.202;11.510;2022-07-23T03:58:56;6.30;;;3.00;;
6117;SDS011;3089;48.202;11.510;2022-07-23T04:01:24;5.90;;;3.17;;
6117;SDS011;3089;48.202;11.510;2022-07-23T04:03:52;5.47;;;3.10;;
6117;SDS011;3089;48.202;11.510;2022-07-23T04:06:20;5.13;;;3.10;;
6117;SDS011;3089;48.202;11.510;2022-07-23T04:08:48;5.53;;;3.40;;
6117;SDS011;3089;48.202;11.510;2022-07-23T04:11:16;6.47;;;3.60;;
6117;SDS011;3089;48.202;11.510;2022-07-23T04:13:44;5.10;;;3.27;;
6117;SDS011;3089;48.202;11.510;2022-07-23T04:16:13;5.70;;;3.13;;
6117;SDS011;3089;48.202;11.510;2022-07-23T04:18:41;7.60;;;2.83;;
6117;SDS011;3089;48.202;11.510;2022-07-23T04:21:09;5.60;;;3.10;;
6117;SDS011;3089;48.202;11.510;2022-07-23T04:23:37;9.50;;;3.70;;
6117;SDS011;3089;48.202;11.510;2022-07-23T04:26:04;5.07;;;3.57;;
6117;SDS011;3089;48.202;11.510;2022-07-23T04:28:32;8.83;;;3.70;;
6117;SDS011;3089;48.202;11.510;2022-07-23T04:31:00;7.70;;;3.17;;
6117;SDS011;3089;48.202;11.510;2022-07-23T04:33:29;5.70;;;3.23;;
6117;SDS011;3089;48.202;11.510;2022-07-23T04:35:57;4.83;;;3.00;;
6117;SDS011;3089;48.202;11.510;2022-07-23T04:38:25;5.90;;;3.50;;
6117;SDS011;3089;48.202;11.510;2022-07-23T04:40:53;8.20;;;4.20;;
6117;SDS011;3089;48.202;11.510;2022-07-23T04:43:21;6.30;;;3.70;;
6117;SDS011;3089;48.202;11.510;2022-07-23T04:45:48;10.70;;;4.00;;
6117;SDS011;3089;48.202;11.510;2022-07-23T04:48:17;8.40;;;4.10;;
6117;SDS011;3089;48.202;11.510;2022-07-23T04:50:47;6.30;;;3.30;;
6117;SDS011;3089;48.202;11.510;2022-07-23T04:53:15;5.77;;;3.70;;
6117;SDS011;3089;48.202;11.510;2022-07-23T04:55:44;6.33;;;3.27;;
6117;SDS011;3089;48.202;11.510;2022-07-23T04:58:12;6.53;;;4.03;;
6117;SDS011;3089;48.202;11.510;2022-07-23T05:00:40;5.03;;;3.23;;
6117;SDS011;3089;48.202;11.510;2022-07-23T05:03:08;5.60;;;3.30;;
6117;SDS011;3089;48.202;11.510;2022-07-23T05:05:36;6.20;;;3.63;;
6117;SDS011;3089;48.202;11.510;2022-07-23T05:08:05;5.57;;;3.50;;
6117;SDS011;3089;48.202;11.510;2022-07-23T05:10:33;6.83;;;3.80;;
6117;SDS011;3089;48.202;11.510;2022-07-23T05:13:01;5.70;;;2.90;;
6117;SDS011;3089;48.202;11.510;2022-07-23T05:15:29;8.17;;;4.00;;
6117;SDS011;3089;48.202;11.510;2022-07-23T05:17:56;5.60;;;3.60;;
6117;SDS011;3089;48.202;11.510;2022-07-23T05:20:24;6.10;;;3.97;;
6117;SDS011;3089;48.202;11.510;2022-07-23T05:22:52;5.50;;;3.80;;
6117;SDS011;3089;48.202;11.510;2022-07-23T05:25:21;6.70;;;3.87;;
6117;SDS011;3089;48.202;11.510;2022-07-23T05:27:49;9.17;;;3.83;;
6117;SDS011;3089;48.202;11.510;2022-07-23T05:30:17;5.80;;;4.17;;
6117;SDS011;3089;48.202;11.510;2022-07-23T05:32:45;7.30;;;3.97;;
6117;SDS011;3089;48.202;11.510;2022-07-23T05:35:15;6.97;;;3.57;;
6117;SDS011;3089;48.202;11.510;2022-07-23T05:37:43;8.17;;;3.60;;
6117;SDS011;3089;48.202;11.510;2022-07-23T05:40:11;8.60;;;4.30;;
6117;SDS011;3089;48.202;11.510;2022-07-23T05:42:41;9.50;;;3.93;;
6117;SDS011;3089;48.202;11.510;2022-07-23T05:45:09;6.87;;;4.00;;
6117;SDS011;3089;48.202;11.510;2022-07-23T05:47:42;6.47;;;4.03;;
6117;SDS011;3089;48.202;11.510;2022-07-23T05:50:10;5.50;;;3.33;;
6117;SDS011;3089;48.202;11.510;2022-07-23T05:52:38;5.63;;;3.87;;
6117;SDS011;3089;48.202;11.510;2022-07-23T05:55:08;6.30;;;3.93;;
6117;SDS011;3089;48.202;11.510;2022-07-23T05:57:36;6.23;;;4.00;;
6117;SDS011;3089;48.202;11.510;2022-07-23T06:00:07;9.10;;;4.60;;
6117;SDS011;3089;48.202;11.510;2022-07-23T06:02:37;7.80;;;4.23;;
6117;SDS011;3089;48.202;11.510;2022-07-23T06:05:06;5.90;;;4.10;;
6117;SDS011;3089;48.202;11.510;2022-07-23T06:07:35;13.13;;;4.00;;
6117;SDS011;3089;48.202;11.510;2022-07-23T06:10:03;6.67;;;4.03;;
6117;SDS011;3089;48.202;11.510;2022-07-23T06:12:31;7.30;;;4.40;;
6117;SDS011;3089;48.202;11.510;2022-07-23T06:14:59;5.70;;;3.60;;
6117;SDS011;3089;48.202;11.510;2022-07-23T06:17:29;6.53;;;4.30;;
6117;SDS011;3089;48.202;11.510;2022-07-23T06:19:56;5.87;;;4.10;;
6117;SDS011;3089;48.202;11.510;2022-07-23T06:22:24;9.50;;;3.97;;
6117;SDS011;3089;48.202;11.510;2022-07-23T06:24:52;7.80;;;4.10;;
6117;SDS011;3089;48.202;11.510;2022-07-23T06:27:20;6.07;;;3.57;;
6117;SDS011;3089;48.202;11.510;2022-07-23T06:29:51;7.70;;;3.80;;
6117;SDS011;3089;48.202;11.510;2022-07-23T06:32:19;7.23;;;4.47;;
6117;SDS011;3089;48.202;11.510;2022-07-23T06:34:49;8.80;;;4.60;;
6117;SDS011;3089;48.202;11.510;2022-07-23T06:37:17;6.70;;;4.27;;
6117;SDS011;3089;48.202;11.510;2022-07-23T06:39:45;8.40;;;4.10;;
6117;SDS011;3089;48.202;11.510;2022-07-23T06:42:13;8.20;;;4.20;;
6117;SDS011;3089;48.202;11.510;2022-07-23T06:44:41;6.47;;;4.23;;
6117;SDS011;3089;48.202;11.510;2022-07-23T06:47:09;6.83;;;3.80;;
6117;SDS011;3089;48.202;11.510;2022-07-23T06:49:37;6.70;;;4.13;;
6117;SDS011;3089;48.202;11.510;2022-07-23T06:52:08;6.73;;;4.20;;
6117;SDS011;3089;48.202;11.510;2022-07-23T06:54:36;6.70;;;4.20;;
6117;SDS011;3089;48.202;11.510;2022-07-23T06:57:04;7.87;;;4.80;;
6117;SDS011;3089;48.202;11.510;2022-07-23T06:59:32;7.67;;;4.40;;
6117;SDS011;3089;48.202;11.510;2022-07-23T07:02:02;6.83;;;4.37;;
6117;SDS011;3089;48.202;11.510;2022-07-23T07:04:30;7.70;;;4.60;;
6117;SDS011;3089;48.202;11.510;2022-07-23T07:06:58;7.33;;;4.70;;
6117;SDS011;3089;48.202;11.510;2022-07-23T07:09:28;7.40;;;4.63;;
6117;SDS011;3089;48.202;11.510;2022-07-23T07:11:56;8.97;;;5.17;;
6117;SDS011;3089;48.202;11.510;2022-07-23T07:14:24;6.93;;;4.20;;
6117;SDS011;3089;48.202;11.510;2022-07-23T07:16:51;7.40;;;4.60;;
6117;SDS011;3089;48.202;11.510;2022-07-23T07:19:20;10.23;;;5.53;;
6117;SDS011;3089;48.202;11.510;2022-07-23T07:21:47;8.90;;;5.13;;
6117;SDS011;3089;48.202;11.510;2022-07-23T07:24:15;9.70;;;4.80;;
6117;SDS011;3089;48.202;11.510;2022-07-23T07:26:44;7.90;;;5.07;;
6117;SDS011;3089;48.202;11.510;2022-07-23T07:29:12;8.63;;;5.30;;
6117;SDS011;3089;48.202;11.510;2022-07-23T07:31:40;9.43;;;5.00;;
6117;SDS011;3089;48.202;11.510;2022-07-23T07:34:08;8.10;;;5.10;;
6117;SDS011;3089;48.202;11.510;2022-07-23T07:36:36;7.67;;;4.60;;
6117;SDS011;3089;48.202;11.510;2022-07-23T07:39:04;8.30;;;5.70;;
6117;SDS011;3089;48.202;11.510;2022-07-23T07:41:33;7.93;;;5.20;;
6117;SDS011;3089;48.202;11.510;2022-07-23T07:44:02;9.57;;;4.80;;
6117;SDS011;3089;48.202;11.510;2022-07-23T07:46:30;7.90;;;4.97;;
6117;SDS011;3089;48.202;11.510;2022-07-23T07:48:58;7.93;;;4.80;;
6117;SDS011;3089;48.202;11.510;2022-07-23T07:51:26;9.10;;;4.73;;
6117;SDS011;3089;48.202;11.510;2022-07-23T07:53:55;7.47;;;4.50;;
6117;SDS011;3089;48.202;11.510;2022-07-23T07:56:24;8.30;;;4.40;;
6117;SDS011;3089;48.202;11.510;2022-07-23T07:58:52;6.53;;;4.87;;
6117;SDS011;3089;48.202;11.510;2022-07-23T08:01:22;6.50;;;4.50;;
6117;SDS011;3089;48.202;11.510;2022-07-23T08:03:50;6.10;;;4.43;;
6117;SDS011;3089;48.202;11.510;2022-07-23T08:06:19;6.60;;;4.50;;
6117;SDS011;3089;48.202;11.510;2022-07-23T08:08:47;7.77;;;4.47;;
6117;SDS011;3089;48.202;11.510;2022-07-23T08:11:15;14.43;;;5.17;;
6117;SDS011;3089;48.202;11.510;2022-07-23T08:13:43;7.10;;;4.60;;
6117;SDS011;3089;48.202;11.510;2022-07-23T08:16:11;7.27;;;4.70;;
6117;SDS011;3089;48.202;11.510;2022-07-23T08:18:40;6.20;;;4.40;;
6117;SDS011;3089;48.202;11.510;2022-07-23T08:21:08;8.33;;;4.47;;
6117;SDS011;3089;48.202;11.510;2022-07-23T08:23:36;7.80;;;4.87;;
6117;SDS011;3089;48.202;11.510;2022-07-23T08:26:04;12.03;;;6.13;;
6117;SDS011;3089;48.202;11.510;2022-07-23T08:28:32;7.50;;;4.63;;
6117;SDS011;3089;48.202;11.510;2022-07-23T08:31:00;10.43;;;5.20;;
6117;SDS011;3089;48.202;11.510;2022-07-23T08:33:28;7.87;;;5.20;;
6117;SDS011;3089;48.202;11.510;2022-07-23T08:36:01;9.30;;;5.10;;
6117;SDS011;3089;48.202;11.510;2022-07-23T08:38:32;8.53;;;5.27;;
6117;SDS011;3089;48.202;11.510;2022-07-23T08:41:01;7.30;;;5.03;;
6117;SDS011;3089;48.202;11.510;2022-07-23T08:43:32;8.80;;;5.27;;
6117;SDS011;3089;48.202;11.510;2022-07-23T08:46:02;8.10;;;4.77;;
6117;SDS011;3089;48.202;11.510;2022-07-23T08:48:32;8.73;;;4.80;;
6117;SDS011;3089;48.202;11.510;2022-07-23T08:51:02;9.27;;;4.87;;
6117;SDS011;3089;48.202;11.510;2022-07-23T08:53:33;7.43;;;6.00;;
6117;SDS011;3089;48.202;11.510;2022-07-23T08:56:04;7.43;;;5.27;;
6117;SDS011;3089;48.202;11.510;2022-07-23T08:58:35;8.00;;;5.30;;
6117;SDS011;3089;48.202;11.510;2022-07-23T09:01:03;9.47;;;5.60;;
6117;SDS011;3089;48.202;11.510;2022-07-23T09:03:32;11.70;;;6.50;;
6117;SDS011;3089;48.202;11.510;2022-07-23T09:06:03;13.93;;;6.40;;
6117;SDS011;3089;48.202;11.510;2022-07-23T09:08:35;7.30;;;5.50;;
6117;SDS011;3089;48.202;11.510;2022-07-23T09:11:05;8.20;;;5.33;;
6117;SDS011;3089;48.202;11.510;2022-07-23T09:13:35;8.33;;;6.03;;
6117;SDS011;3089;48.202;11.510;2022-07-23T09:16:06;8.17;;;5.70;;
6117;SDS011;3089;48.202;11.510;2022-07-23T09:18:37;8.03;;;5.47;;
6117;SDS011;3089;48.202;11.510;2022-07-23T09:21:21;7.67;;;5.33;;
6117;SDS011;3089;48.202;11.510;2022-07-23T09:23:52;9.17;;;5.67;;
6117;SDS011;3089;48.202;11.510;2022-07-23T09:26:26;8.00;;;6.00;;
6117;SDS011;3089;48.202;11.510;2022-07-23T09:29:00;8.43;;;5.17;;
6117;SDS011;3089;48.202;11.510;2022-07-23T09:31:33;7.90;;;5.70;;
6117;SDS011;3089;48.202;11.510;2022-07-23T09:34:12;8.87;;;4.93;;
6117;SDS011;3089;48.202;11.510;2022-07-23T09:36:45;9.10;;;4.90;;
6117;SDS011;3089;48.202;11.510;2022-07-23T09:39:14;6.80;;;5.00;;
6117;SDS011;3089;48.202;11.510;2022-07-23T09:41:44;7.10;;;5.07;;
6117;SDS011;3089;48.202;11.510;2022-07-23T09:44:14;12.30;;;5.73;;
6117;SDS011;3089;48.202;11.510;2022-07-23T09:46:43;7.93;;;4.80;;
6117;SDS011;3089;48.202;11.510;2022-07-23T09:49:14;8.07;;;5.70;;
6117;SDS011;3089;48.202;11.510;2022-07-23T09:51:49;7.60;;;4.97;;
6117;SDS011;3089;48.202;11.510;2022-07-23T09:54:27;6.77;;;4.87;;
6117;SDS011;3089;48.202;11.510;2022-07-23T09:56:58;10.10;;;4.83;;
6117;SDS011;3089;48.202;11.510;2022-07-23T09:59:28;7.80;;;5.40;;
6117;SDS011;3089;48.202;11.510;2022-07-23T10:01:57;9.57;;;6.00;;
6117;SDS011;3089;48.202;11.510;2022-07-23T10:04:27;6.80;;;4.70;;
6117;SDS011;3089;48.202;11.510;2022-07-23T10:06:57;8.37;;;4.70;;
6117;SDS011;3089;48.202;11.510;2022-07-23T10:09:27;6.87;;;4.20;;
6117;SDS011;3089;48.202;11.510;2022-07-23T10:11:58;7.27;;;4.53;;
6117;SDS011;3089;48.202;11.510;2022-07-23T10:14:44;6.30;;;3.93;;
6117;SDS011;3089;48.202;11.510;2022-07-23T10:17:14;11.67;;;4.10;;
6117;SDS011;3089;48.202;11.510;2022-07-23T10:19:42;7.77;;;3.77;;
6117;SDS011;3089;48.202;11.510;2022-07-23T10:22:13;5.80;;;3.90;;
6117;SDS011;3089;48.202;11.510;2022-07-23T10:24:50;5.80;;;3.73;;
6117;SDS011;3089;48.202;11.510;2022-07-23T10:27:36;7.00;;;4.37;;
6117;SDS011;3089;48.202;11.510;2022-07-23T10:30:16;5.90;;;3.53;;
6117;SDS011;3089;48.202;11.510;2022-07-23T10:32:52;6.70;;;4.30;;
6117;SDS011;3089;48.202;11.510;2022-07-23T10:35:29;7.00;;;3.77;;
6117;SDS011;3089;48.202;11.510;2022-07-23T10:38:10;7.30;;;4.33;;
6117;SDS011;3089;48.202;11.510;2022-07-23T10:43:25;8.00;;;4.30;;
6117;SDS011;3089;48.202;11.510;2022-07-23T10:45:53;6.83;;;3.53;;
6117;SDS011;3089;48.202;11.510;2022-07-23T10:48:22;9.23;;;4.20;;
6117;SDS011;3089;48.202;11.510;2022-07-23T10:53:56;8.70;;;4.10;;
6117;SDS011;3089;48.202;11.510;2022-07-23T10:59:16;8.83;;;4.20;;
6117;SDS011;3089;48.202;11.510;2022-07-23T11:01:45;7.33;;;3.40;;
6117;SDS011;3089;48.202;11.510;2022-07-23T11:04:14;6.23;;;4.00;;
6117;SDS011;3089;48.202;11.510;2022-07-23T11:09:48;5.77;;;3.77;;
6117;SDS011;3089;48.202;11.510;2022-07-23T11:12:35;7.43;;;4.30;;
6117;SDS011;3089;48.202;11.510;2022-07-23T11:15:06;7.97;;;4.23;;
6117;SDS011;3089;48.202;11.510;2022-07-23T11:17:36;7.10;;;3.80;;
6117;SDS011;3089;48.202;11.510;2022-07-23T11:20:19;5.73;;;3.43;;
6117;SDS011;3089;48.202;11.510;2022-07-23T11:22:49;6.33;;;3.73;;
6117;SDS011;3089;48.202;11.510;2022-07-23T11:25:35;7.73;;;4.10;;
6117;SDS011;3089;48.202;11.510;2022-07-23T11:28:11;8.53;;;4.17;;
6117;SDS011;3089;48.202;11.510;2022-07-23T11:30:41;6.60;;;4.10;;
6117;SDS011;3089;48.202;11.510;2022-07-23T11:33:17;6.90;;;3.93;;
6117;SDS011;3089;48.202;11.510;2022-07-23T11:35:48;6.13;;;4.00;;
6117;SDS011;3089;48.202;11.510;2022-07-23T11:38:26;7.93;;;4.23;;
6117;SDS011;3089;48.202;11.510;2022-07-23T11:40:58;6.50;;;4.10;;
6117;SDS011;3089;48.202;11.510;2022-07-23T11:43:26;7.13;;;4.13;;
6117;SDS011;3089;48.202;11.510;2022-07-23T11:45:57;9.17;;;4.93;;
6117;SDS011;3089;48.202;11.510;2022-07-23T11:48:27;7.00;;;4.03;;
6117;SDS011;3089;48.202;11.510;2022-07-23T11:50:57;6.50;;;5.00;;
6117;SDS011;3089;48.202;11.510;2022-07-23T11:53:25;8.27;;;4.80;;
6117;SDS011;3089;48.202;11.510;2022-07-23T11:56:03;8.37;;;5.03;;
6117;SDS011;3089;48.202;11.510;2022-07-23T11:58:32;7.50;;;4.77;;
6117;SDS011;3089;48.202;11.510;2022-07-23T12:01:00;12.30;;;5.60;;
6117;SDS011;3089;48.202;11.510;2022-07-23T12:03:49;7.73;;;4.43;;
6117;SDS011;3089;48.202;11.510;2022-07-23T12:06:18;7.33;;;4.80;;
6117;SDS011;3089;48.202;11.510;2022-07-23T12:08:45;6.00;;;4.70;;
6117;SDS011;3089;48.202;11.510;2022-07-23T12:11:15;9.30;;;5.20;;
6117;SDS011;3089;48.202;11.510;2022-07-23T12:13:43;6.63;;;4.60;;
6117;SDS011;3089;48.202;11.510;2022-07-23T12:16:10;8.03;;;5.13;;
6117;SDS011;3089;48.202;11.510;2022-07-23T12:18:38;9.73;;;4.90;;
6117;SDS011;3089;48.202;11.510;2022-07-23T12:21:06;6.00;;;4.13;;
6117;SDS011;3089;48.202;11.510;2022-07-23T12:23:34;7.97;;;4.20;;
6117;SDS011;3089;48.202;11.510;2022-07-23T12:26:04;8.43;;;4.57;;
6117;SDS011;3089;48.202;11.510;2022-07-23T12:28:34;9.17;;;4.30;;
6117;SDS011;3089;48.202;11.510;2022-07-23T12:31:04;7.30;;;4.80;;
6117;SDS011;3089;48.202;11.510;2022-07-23T12:33:33;8.97;;;5.07;;
6117;SDS011;3089;48.202;11.510;2022-07-23T12:36:03;10.20;;;4.50;;
6117;SDS011;3089;48.202;11.510;2022-07-23T12:38:36;8.23;;;5.20;;
6117;SDS011;3089;48.202;11.510;2022-07-23T12:41:05;7.47;;;4.70;;
6117;SDS011;3089;48.202;11.510;2022-07-23T12:43:36;8.70;;;4.47;;
6117;SDS011;3089;48.202;11.510;2022-07-23T12:46:06;10.50;;;4.73;;
6117;SDS011;3089;48.202;11.510;2022-07-23T12:48:35;8.77;;;4.53;;
6117;SDS011;3089;48.202;11.510;2022-07-23T12:51:05;11.30;;;4.70;;
6117;SDS011;3089;48.202;11.510;2022-07-23T12:53:36;7.17;;;4.40;;
6117;SDS011;3089;48.202;11.510;2022-07-23T12:56:08;6.70;;;4.50;;
6117;SDS011;3089;48.202;11.510;2022-07-23T12:58:46;7.63;;;4.40;;
6117;SDS011;3089;48.202;11.510;2022-07-23T13:01:26;7.50;;;4.97;;
6117;SDS011;3089;48.202;11.510;2022-07-23T13:03:58;9.03;;;5.10;;
6117;SDS011;3089;48.202;11.510;2022-07-23T13:06:28;7.30;;;4.77;;
6117;SDS011;3089;48.202;11.510;2022-07-23T13:08:57;7.07;;;4.47;;
6117;SDS011;3089;48.202;11.510;2022-07-23T13:11:27;8.13;;;5.23;;
6117;SDS011;3089;48.202;11.510;2022-07-23T13:13:57;10.40;;;5.47;;
6117;SDS011;3089;48.202;11.510;2022-07-23T13:16:27;7.10;;;4.20;;
6117;SDS011;3089;48.202;11.510;2022-07-23T13:18:56;6.70;;;4.60;;
6117;SDS011;3089;48.202;11.510;2022-07-23T13:21:26;7.70;;;4.60;;
6117;SDS011;3089;48.202;11.510;2022-07-23T13:23:55;8.30;;;5.50;;
6117;SDS011;3089;48.202;11.510;2022-07-23T13:26:23;10.37;;;5.40;;
6117;SDS011;3089;48.202;11.510;2022-07-23T13:28:52;6.90;;;5.43;;
6117;SDS011;3089;48.202;11.510;2022-07-23T13:31:21;7.17;;;4.70;;
6117;SDS011;3089;48.202;11.510;2022-07-23T13:33:50;6.97;;;4.87;;
6117;SDS011;3089;48.202;11.510;2022-07-23T13:36:18;9.03;;;5.13;;
6117;SDS011;3089;48.202;11.510;2022-07-23T13:38:46;10.30;;;5.40;;
6117;SDS011;3089;48.202;11.510;2022-07-23T13:41:15;7.60;;;5.10;;
6117;SDS011;3089;48.202;11.510;2022-07-23T13:43:44;9.80;;;5.50;;
6117;SDS011;3089;48.202;11.510;2022-07-23T13:46:13;7.37;;;5.00;;
6117;SDS011;3089;48.202;11.510;2022-07-23T13:48:42;7.53;;;5.20;;
6117;SDS011;3089;48.202;11.510;2022-07-23T13:51:10;8.40;;;4.90;;
6117;SDS011;3089;48.202;11.510;2022-07-23T13:53:39;11.20;;;5.63;;
6117;SDS011;3089;48.202;11.510;2022-07-23T13:56:07;10.17;;;5.30;;
6117;SDS011;3089;48.202;11.510;2022-07-23T13:58:35;8.73;;;5.30;;
6117;SDS011;3089;48.202;11.510;2022-07-23T14:01:03;10.70;;;5.90;;
6117;SDS011;3089;48.202;11.510;2022-07-23T14:03:31;7.93;;;5.10;;
6117;SDS011;3089;48.202;11.510;2022-07-23T14:06:00;7.57;;;5.20;;
6117;SDS011;3089;48.202;11.510;2022-07-23T14:08:28;8.83;;;5.10;;
6117;SDS011;3089;48.202;11.510;2022-07-23T14:10:56;9.27;;;5.40;;
6117;SDS011;3089;48.202;11.510;2022-07-23T14:13:24;12.10;;;5.30;;
6117;SDS011;3089;48.202;11.510;2022-07-23T14:15:52;7.67;;;5.23;;
6117;SDS011;3089;48.202;11.510;2022-07-23T14:18:20;8.40;;;5.07;;
6117;SDS011;3089;48.202;11.510;2022-07-23T14:20:48;10.03;;;5.60;;
6117;SDS011;3089;48.202;11.510;2022-07-23T14:23:19;7.50;;;5.30;;
6117;SDS011;3089;48.202;11.510;2022-07-23T14:25:46;7.50;;;4.80;;
6117;SDS011;3089;48.202;11.510;2022-07-23T14:28:14;6.83;;;4.77;;
6117;SDS011;3089;48.202;11.510;2022-07-23T14:30:45;8.23;;;5.27;;
6117;SDS011;3089;48.202;11.510;2022-07-23T14:33:14;9.20;;;4.77;;
6117;SDS011;3089;48.202;11.510;2022-07-23T14:35:42;7.43;;;5.23;;
6117;SDS011;3089;48.202;11.510;2022-07-23T14:38:10;7.93;;;5.07;;
6117;SDS011;3089;48.202;11.510;2022-07-23T14:40:40;11.93;;;4.90;;
6117;SDS011;3089;48.202;11.510;2022-07-23T14:43:10;8.90;;;4.90;;
6117;SDS011;3089;48.202;11.510;2022-07-23T14:45:38;7.57;;;5.60;;
6117;SDS011;3089;48.202;11.510;2022-07-23T14:48:06;11.03;;;5.50;;
6117;SDS011;3089;48.202;11.510;2022-07-23T14:50:34;8.07;;;4.40;;
6117;SDS011;3089;48.202;11.510;2022-07-23T14:53:02;7.37;;;4.77;;
6117;SDS011;3089;48.202;11.510;2022-07-23T14:55:30;14.60;;;6.07;;
6117;SDS011;3089;48.202;11.510;2022-07-23T14:58:00;10.53;;;5.50;;
6117;SDS011;3089;48.202;11.510;2022-07-23T15:00:28;7.87;;;4.30;;
6117;SDS011;3089;48.202;11.510;2022-07-23T15:02:56;10.67;;;4.97;;
6117;SDS011;3089;48.202;11.510;2022-07-23T15:05:24;9.47;;;5.50;;
6117;SDS011;3089;48.202;11.510;2022-07-23T15:07:55;8.30;;;5.70;;
6117;SDS011;3089;48.202;11.510;2022-07-23T15:10:23;9.30;;;5.47;;
6117;SDS011;3089;48.202;11.510;2022-07-23T15:12:51;9.60;;;5.07;;
6117;SDS011;3089;48.202;11.510;2022-07-23T15:15:21;10.90;;;5.20;;
6117;SDS011;3089;48.202;11.510;2022-07-23T15:17:49;6.03;;;4.10;;
6117;SDS011;3089;48.202;11.510;2022-07-23T15:20:17;7.77;;;4.90;;
6117;SDS011;3089;48.202;11.510;2022-07-23T15:23:03;9.50;;;5.53;;
6117;SDS011;3089;48.202;11.510;2022-07-23T15:25:33;6.60;;;5.00;;